Time;durP1;ratioP1;P1;durP2;ratioP2;P2;SDS_P1;SDS_P2;PMS_P1;PMS_P2;Temp;Humidity;BMP_temperature;BMP_pressure;BME280_temperature;BME280_humidity;BME280_pressure;Samples;Min_cycle;Max_cycle;Signal;HPM_P1;HPM_P2
2022/11/25 00:01:14;;;;;;;15.57;11.32;;;1.90;99.90;;;;;;5000260;28;20149;-64
2022/11/25 00:03:42;;;;;;;16.80;10.68;;;1.90;99.90;;;;;;4986560;28;20133;-65
2022/11/25 00:06:12;;;;;;;14.02;10.13;;;1.90;99.90;;;;;;4984138;28;20073;-64
2022/11/25 00:08:40;;;;;;;13.45;10.38;;;1.80;99.90;;;;;;4975442;28;20165;-64
2022/11/25 00:11:08;;;;;;;18.00;12.10;;;1.80;99.90;;;;;;4985184;28;20046;-64
2022/11/25 00:13:35;;;;;;;13.32;9.85;;;1.80;99.90;;;;;;4984937;28;20052;-63
2022/11/25 00:16:10;;;;;;;12.95;10.00;;;1.80;99.90;;;;;;4984265;28;20624;-66
2022/11/25 00:18:38;;;;;;;12.30;9.18;;;1.80;99.90;;;;;;4982708;28;20196;-68
2022/11/25 00:21:10;;;;;;;18.10;12.05;;;1.80;99.90;;;;;;4982627;28;20058;-64
2022/11/25 00:23:37;;;;;;;14.55;10.52;;;1.80;99.90;;;;;;4985761;28;20085;-68
2022/11/25 00:26:15;;;;;;;15.30;10.38;;;1.80;99.90;;;;;;4982926;28;20738;-65
2022/11/25 00:28:44;;;;;;;17.60;10.43;;;1.80;99.90;;;;;;4989623;28;20459;-65
2022/11/25 00:31:17;;;;;;;14.75;10.15;;;1.80;99.90;;;;;;4989655;28;20588;-67
2022/11/25 00:33:45;;;;;;;17.20;10.63;;;1.80;99.90;;;;;;4989041;28;20054;-65
2022/11/25 00:36:18;;;;;;;15.48;11.40;;;1.90;99.90;;;;;;4993590;28;20132;-66
2022/11/25 00:38:45;;;;;;;13.75;10.60;;;1.90;99.90;;;;;;5001840;28;20229;-63
2022/11/25 00:46:44;;;;;;;15.27;9.15;;;1.80;99.90;;;;;;4986272;28;20101;-65
2022/11/25 00:49:11;;;;;;;14.80;8.98;;;1.90;99.90;;;;;;4986701;28;20122;-65
2022/11/25 00:51:38;;;;;;;13.20;9.20;;;1.90;99.90;;;;;;4996873;28;20339;-66
2022/11/25 00:54:05;;;;;;;11.38;8.68;;;1.90;99.90;;;;;;5001093;28;20707;-64
2022/11/25 00:56:32;;;;;;;11.65;9.30;;;1.90;99.90;;;;;;4982964;28;20135;-67
2022/11/25 00:58:59;;;;;;;14.48;9.68;;;1.90;99.90;;;;;;4987977;28;20559;-65
2022/11/25 01:01:26;;;;;;;11.45;8.20;;;1.90;99.90;;;;;;4992147;28;20909;-64
2022/11/25 01:03:53;;;;;;;11.30;8.20;;;1.90;99.90;;;;;;4986524;28;20046;-66
2022/11/25 01:06:21;;;;;;;12.93;8.98;;;1.90;99.90;;;;;;4991020;28;20051;-64
2022/11/25 01:08:48;;;;;;;10.90;8.77;;;1.90;99.90;;;;;;4982966;28;20054;-65
2022/11/25 01:11:20;;;;;;;13.50;9.55;;;1.90;99.90;;;;;;5000824;28;20112;-65
2022/11/25 01:13:47;;;;;;;15.10;10.50;;;1.90;99.90;;;;;;4985266;28;20065;-64
2022/11/25 01:16:19;;;;;;;14.82;10.02;;;1.90;99.90;;;;;;4988816;28;20056;-67
2022/11/25 01:18:47;;;;;;;17.10;9.32;;;1.80;99.90;;;;;;4980658;28;20476;-64
2022/11/25 01:21:19;;;;;;;11.77;8.07;;;1.90;99.90;;;;;;4978001;28;20056;-67
2022/11/25 01:23:48;;;;;;;13.43;9.60;;;1.90;99.90;;;;;;4986122;28;20054;-64
2022/11/25 01:26:20;;;;;;;13.48;9.07;;;1.90;99.90;;;;;;4999420;28;20133;-65
2022/11/25 01:28:48;;;;;;;12.85;8.30;;;1.90;99.90;;;;;;4987869;28;20133;-64
2022/11/25 01:31:18;;;;;;;13.95;9.82;;;1.90;99.90;;;;;;4989049;28;20051;-65
2022/11/25 01:33:46;;;;;;;16.40;9.98;;;1.90;99.90;;;;;;4990156;28;20137;-65
2022/11/25 01:36:17;;;;;;;12.88;9.68;;;1.90;99.90;;;;;;4985299;28;20560;-65
2022/11/25 01:38:48;;;;;;;11.25;7.88;;;1.90;99.90;;;;;;4983810;28;20536;-63
2022/11/25 01:41:16;;;;;;;10.95;7.65;;;1.90;99.90;;;;;;5001605;28;20141;-64
2022/11/25 01:43:42;;;;;;;10.35;8.65;;;1.90;99.90;;;;;;4986602;28;20046;-65
2022/11/25 01:46:26;;;;;;;14.63;9.73;;;1.90;99.90;;;;;;4983849;28;20142;-64
2022/11/25 01:48:57;;;;;;;11.95;8.63;;;1.90;99.90;;;;;;4985049;28;20101;-64
2022/11/25 01:51:39;;;;;;;12.55;8.85;;;1.90;99.90;;;;;;4988000;28;20049;-64
2022/11/25 01:54:09;;;;;;;10.70;8.55;;;1.90;99.90;;;;;;4987298;28;20504;-65
2022/11/25 01:56:43;;;;;;;15.02;8.93;;;1.90;99.90;;;;;;4983469;28;20066;-66
2022/11/25 01:59:11;;;;;;;13.73;8.27;;;1.90;99.90;;;;;;4993258;28;20512;-65
2022/11/25 02:01:38;;;;;;;13.35;9.20;;;1.90;99.90;;;;;;4979705;28;20055;-67
2022/11/25 02:04:08;;;;;;;12.40;8.80;;;1.90;99.90;;;;;;4983735;28;20434;-67
2022/11/25 02:06:44;;;;;;;13.52;9.23;;;1.90;99.90;;;;;;4993485;28;20046;-64
2022/11/25 02:09:13;;;;;;;14.35;9.20;;;1.90;99.90;;;;;;4987029;28;20127;-64
2022/11/25 02:11:42;;;;;;;10.55;7.57;;;1.90;99.90;;;;;;5002622;28;20183;-67
2022/11/25 02:14:13;;;;;;;13.57;8.70;;;1.90;99.90;;;;;;4990813;28;20061;-65
2022/11/25 02:16:40;;;;;;;13.35;8.77;;;1.90;99.90;;;;;;4984225;28;20074;-64
2022/11/25 02:19:21;;;;;;;10.30;8.27;;;1.90;99.90;;;;;;4985547;28;20557;-65
2022/11/25 02:21:54;;;;;;;12.02;8.20;;;1.90;99.90;;;;;;5000701;28;20154;-64
2022/11/25 02:24:34;;;;;;;13.80;8.98;;;1.90;99.90;;;;;;4997761;28;20054;-67
2022/11/25 02:27:02;;;;;;;12.40;8.55;;;1.90;99.90;;;;;;4984262;28;20523;-64
2022/11/25 02:29:32;;;;;;;14.60;7.85;;;1.90;99.90;;;;;;4983251;28;20445;-64
2022/11/25 02:31:58;;;;;;;11.88;7.82;;;1.90;99.90;;;;;;4999766;28;20424;-68
2022/11/25 02:34:26;;;;;;;9.68;7.60;;;1.90;99.90;;;;;;4994796;28;20053;-64
2022/11/25 02:36:53;;;;;;;10.68;8.98;;;1.90;99.90;;;;;;4982591;28;20042;-65
2022/11/25 02:39:20;;;;;;;13.07;8.02;;;2.00;99.90;;;;;;4987078;28;20472;-64
2022/11/25 02:41:52;;;;;;;12.60;8.15;;;2.00;99.90;;;;;;5001352;28;20069;-65
2022/11/25 02:44:19;;;;;;;13.35;9.13;;;1.90;99.90;;;;;;4997344;28;20094;-64
2022/11/25 02:46:46;;;;;;;10.10;7.55;;;1.90;99.90;;;;;;4987322;28;20203;-63
2022/11/25 02:49:13;;;;;;;11.10;8.10;;;1.90;99.90;;;;;;4995261;28;20070;-66
2022/11/25 02:51:43;;;;;;;9.40;6.90;;;1.90;99.90;;;;;;4998258;28;20587;-65
2022/11/25 02:54:14;;;;;;;11.23;7.45;;;2.00;99.90;;;;;;4994496;28;20096;-64
2022/11/25 02:56:41;;;;;;;10.13;7.28;;;1.90;99.90;;;;;;4985124;28;20045;-64
2022/11/25 02:59:09;;;;;;;11.27;7.22;;;1.90;99.90;;;;;;4998920;28;20553;-63
2022/11/25 03:01:37;;;;;;;12.57;8.15;;;1.90;99.90;;;;;;4999096;28;20055;-67
2022/11/25 03:04:06;;;;;;;11.37;8.43;;;1.90;99.90;;;;;;4994889;28;20057;-65
2022/11/25 03:06:33;;;;;;;10.63;8.52;;;1.90;99.90;;;;;;4980642;28;20472;-65
2022/11/25 03:09:00;;;;;;;11.80;7.53;;;1.90;99.90;;;;;;4982198;28;20152;-66
2022/11/25 03:14:13;;;;;;;10.77;7.75;;;1.90;99.90;;;;;;4996566;28;20054;-69
2022/11/25 03:16:41;;;;;;;9.70;7.20;;;1.90;99.90;;;;;;4997818;28;20137;-64
2022/11/25 03:19:09;;;;;;;9.20;7.70;;;1.90;99.90;;;;;;4997466;28;20261;-65
2022/11/25 03:21:35;;;;;;;10.98;7.60;;;1.90;99.90;;;;;;4995617;28;20511;-67
2022/11/25 03:24:02;;;;;;;12.35;8.70;;;1.90;99.90;;;;;;4999708;28;20131;-65
2022/11/25 03:26:30;;;;;;;10.02;7.50;;;1.90;99.90;;;;;;4985617;28;20144;-64
2022/11/25 03:28:57;;;;;;;10.63;7.00;;;1.90;99.90;;;;;;4985760;28;20046;-68
2022/11/25 03:31:23;;;;;;;14.60;9.07;;;1.90;99.90;;;;;;5001416;28;20092;-66
2022/11/25 03:33:51;;;;;;;13.07;8.20;;;1.90;99.90;;;;;;4998332;28;20046;-64
2022/11/25 03:36:19;;;;;;;12.05;8.15;;;1.90;99.90;;;;;;4982637;28;20137;-67
2022/11/25 03:38:46;;;;;;;11.20;7.45;;;1.90;99.90;;;;;;4984269;28;20058;-65
2022/11/25 03:41:13;;;;;;;10.40;7.70;;;1.90;99.90;;;;;;4987170;28;20483;-66
2022/11/25 03:43:41;;;;;;;7.97;6.20;;;1.90;99.90;;;;;;4998224;28;20057;-66
2022/11/25 03:46:08;;;;;;;9.57;7.88;;;1.90;99.90;;;;;;4984154;28;20050;-66
2022/11/25 03:48:35;;;;;;;14.13;9.63;;;1.90;99.90;;;;;;4994668;28;20046;-65
2022/11/25 03:51:02;;;;;;;13.35;8.45;;;1.90;99.90;;;;;;4997890;28;20046;-66
2022/11/25 03:53:29;;;;;;;10.52;7.22;;;1.90;99.90;;;;;;4978329;28;20074;-64
2022/11/25 03:55:58;;;;;;;11.85;7.95;;;1.90;99.90;;;;;;4997828;28;20054;-67
2022/11/25 03:58:25;;;;;;;11.10;8.50;;;1.90;99.90;;;;;;4994122;28;20054;-66
2022/11/25 04:00:53;;;;;;;10.95;7.97;;;1.90;99.90;;;;;;4999306;28;20167;-66
2022/11/25 04:03:20;;;;;;;9.60;7.38;;;1.90;99.90;;;;;;4999360;28;20212;-64
2022/11/25 04:05:47;;;;;;;13.63;8.80;;;1.90;99.90;;;;;;4984159;28;20049;-67
2022/11/25 04:08:14;;;;;;;12.38;8.60;;;1.90;99.90;;;;;;4990161;28;20145;-66
2022/11/25 04:10:43;;;;;;;10.52;7.55;;;1.90;99.90;;;;;;5000667;28;20479;-64
2022/11/25 04:13:11;;;;;;;15.43;9.73;;;1.90;99.90;;;;;;4999343;28;20426;-66
2022/11/25 04:15:48;;;;;;;11.32;8.55;;;1.90;99.90;;;;;;5000562;28;20191;-65
2022/11/25 04:18:18;;;;;;;11.60;8.32;;;2.00;99.90;;;;;;4997249;28;20160;-67
2022/11/25 04:20:45;;;;;;;13.50;7.95;;;2.00;99.90;;;;;;4996713;28;20039;-65
2022/11/25 04:23:13;;;;;;;12.48;7.63;;;2.00;99.90;;;;;;4987678;28;20394;-64
2022/11/25 04:25:50;;;;;;;9.50;7.50;;;2.00;99.90;;;;;;4994921;28;20495;-65
2022/11/25 04:28:30;;;;;;;12.95;7.18;;;2.00;99.90;;;;;;4991053;28;20141;-64
2022/11/25 04:30:57;;;;;;;11.40;8.80;;;2.00;99.90;;;;;;4985400;28;20081;-69
2022/11/25 04:33:24;;;;;;;10.57;7.45;;;2.00;99.90;;;;;;4983739;28;20696;-65
2022/11/25 04:35:52;;;;;;;11.98;8.25;;;2.00;99.90;;;;;;4999281;28;20142;-65
2022/11/25 04:38:19;;;;;;;12.55;9.07;;;2.10;99.90;;;;;;4966495;28;20050;-68
2022/11/25 04:40:47;;;;;;;10.27;7.32;;;2.10;99.90;;;;;;4992453;28;20078;-66
2022/11/25 04:43:20;;;;;;;10.63;8.55;;;2.10;99.90;;;;;;4982377;28;20141;-64
2022/11/25 04:46:00;;;;;;;10.93;7.63;;;2.10;99.90;;;;;;4996796;28;20058;-64
2022/11/25 04:48:46;;;;;;;10.27;7.45;;;2.00;99.90;;;;;;4996404;28;20073;-69
2022/11/25 04:51:14;;;;;;;9.55;7.28;;;2.10;99.90;;;;;;4982017;28;20074;-68
2022/11/25 04:53:42;;;;;;;12.38;8.35;;;2.00;99.90;;;;;;5001864;28;20824;-65
2022/11/25 04:56:17;;;;;;;14.52;7.65;;;2.10;99.90;;;;;;4995515;28;20788;-66
2022/11/25 05:01:32;;;;;;;9.13;7.30;;;2.10;99.90;;;;;;4996800;28;20057;-65
2022/11/25 05:04:10;;;;;;;11.77;8.27;;;2.10;99.90;;;;;;4998428;28;20147;-65
2022/11/25 05:06:37;;;;;;;9.88;7.90;;;2.10;99.90;;;;;;4991804;28;20169;-69
2022/11/25 05:09:06;;;;;;;10.85;8.45;;;2.10;99.90;;;;;;4994165;28;20057;-64
2022/11/25 05:11:35;;;;;;;10.82;7.55;;;2.10;99.90;;;;;;4994964;28;20050;-64
2022/11/25 05:14:02;;;;;;;11.77;8.15;;;2.10;99.90;;;;;;4988053;28;20054;-67
2022/11/25 05:16:30;;;;;;;11.52;7.15;;;2.10;99.90;;;;;;5001928;28;20616;-64
2022/11/25 05:18:58;;;;;;;11.30;7.63;;;2.10;99.90;;;;;;5002703;28;20520;-65
2022/11/25 05:21:26;;;;;;;11.95;8.27;;;2.10;99.90;;;;;;5000845;28;20140;-69
2022/11/25 05:23:54;;;;;;;12.90;8.85;;;2.10;99.90;;;;;;4988490;28;20406;-64
2022/11/25 05:26:23;;;;;;;11.38;8.35;;;2.10;99.90;;;;;;5000781;28;20157;-66
2022/11/25 05:28:52;;;;;;;11.48;8.18;;;2.10;99.90;;;;;;4985238;28;20664;-64
2022/11/25 05:31:19;;;;;;;11.52;8.38;;;2.20;99.90;;;;;;4998695;28;20496;-65
2022/11/25 05:33:47;;;;;;;12.27;8.07;;;2.20;99.90;;;;;;4988845;28;20057;-64
2022/11/25 05:36:15;;;;;;;11.23;7.70;;;2.20;99.90;;;;;;4997215;28;20072;-66
2022/11/25 05:38:45;;;;;;;11.30;7.75;;;2.10;99.90;;;;;;4999997;28;20042;-64
2022/11/25 05:41:17;;;;;;;10.93;8.70;;;2.20;99.90;;;;;;4984338;28;20132;-67
2022/11/25 05:43:46;;;;;;;12.40;8.65;;;2.20;99.90;;;;;;4986845;28;20043;-64
2022/11/25 05:46:13;;;;;;;12.65;9.00;;;2.20;99.90;;;;;;4992245;28;20117;-68
2022/11/25 05:48:46;;;;;;;12.98;9.10;;;2.20;99.90;;;;;;4980256;28;20150;-67
2022/11/25 05:51:13;;;;;;;9.60;8.23;;;2.20;99.90;;;;;;4973933;28;20123;-69
2022/11/25 05:53:40;;;;;;;12.25;9.65;;;2.20;99.90;;;;;;4991385;28;20506;-64
2022/11/25 05:56:08;;;;;;;12.25;9.07;;;2.20;99.90;;;;;;4988348;28;20085;-69
2022/11/25 05:58:54;;;;;;;11.05;8.38;;;2.20;99.90;;;;;;4987723;28;20057;-66
2022/11/25 06:01:25;;;;;;;14.57;9.07;;;2.20;99.90;;;;;;4991812;28;20046;-67
2022/11/25 06:03:53;;;;;;;14.82;10.05;;;2.20;99.90;;;;;;5000785;28;20054;-66
2022/11/25 06:06:20;;;;;;;13.60;8.43;;;2.20;99.90;;;;;;4992810;28;20372;-71
2022/11/25 06:08:47;;;;;;;12.30;9.63;;;2.20;99.90;;;;;;4994476;28;20042;-68
2022/11/25 06:11:16;;;;;;;12.25;9.20;;;2.20;99.90;;;;;;5000388;28;20141;-65
2022/11/25 06:13:43;;;;;;;12.73;8.32;;;2.20;99.90;;;;;;4998322;28;20053;-65
2022/11/25 06:16:14;;;;;;;12.07;9.05;;;2.20;99.90;;;;;;4991408;28;20138;-65
2022/11/25 06:18:43;;;;;;;15.07;9.25;;;2.30;99.90;;;;;;4979612;28;20054;-68
2022/11/25 06:21:11;;;;;;;11.38;8.63;;;2.30;99.90;;;;;;4990979;28;20058;-68
2022/11/25 06:23:39;;;;;;;10.70;8.35;;;2.30;99.90;;;;;;4980198;28;20046;-66
2022/11/25 06:26:09;;;;;;;11.45;8.60;;;2.30;99.90;;;;;;4981711;28;20113;-67
2022/11/25 06:28:36;;;;;;;;;;;2.30;99.90;;;;;;4992557;28;20038;-64
2022/11/25 06:31:12;;;;;;;15.10;10.88;;;2.30;99.90;;;;;;4995011;28;20009;-69
2022/11/25 06:33:50;;;;;;;14.93;10.82;;;2.30;99.90;;;;;;4997250;28;20823;-64
2022/11/25 06:36:19;;;;;;;13.30;10.40;;;2.30;99.90;;;;;;4989144;28;20459;-66
2022/11/25 06:38:49;;;;;;;14.15;9.13;;;2.30;99.90;;;;;;4982191;28;20945;-65
2022/11/25 06:41:17;;;;;;;14.07;10.63;;;2.30;99.90;;;;;;4980303;28;20148;-66
2022/11/25 06:43:44;;;;;;;25.05;10.05;;;2.30;99.90;;;;;;4979709;28;20046;-64
2022/11/25 06:46:13;;;;;;;14.32;9.63;;;2.30;99.90;;;;;;4981116;28;20149;-64
2022/11/25 06:48:45;;;;;;;14.27;11.07;;;2.30;99.90;;;;;;4979065;28;20049;-64
2022/11/25 06:51:13;;;;;;;14.20;10.55;;;2.30;99.90;;;;;;4980704;28;20070;-64
2022/11/25 06:53:41;;;;;;;15.57;9.68;;;2.30;99.90;;;;;;4983940;28;20121;-65
2022/11/25 06:56:12;;;;;;;15.85;10.52;;;2.30;99.90;;;;;;4978735;28;20388;-65
2022/11/25 06:58:40;;;;;;;14.50;10.55;;;2.40;99.90;;;;;;4979411;28;20043;-66
2022/11/25 07:01:21;;;;;;;16.60;10.85;;;2.40;99.90;;;;;;4979916;28;20077;-64
2022/11/25 07:03:53;;;;;;;15.60;11.70;;;2.40;99.90;;;;;;4975052;28;20110;-65
2022/11/25 07:06:20;;;;;;;19.08;11.07;;;2.40;99.90;;;;;;4972298;28;20046;-66
2022/11/25 07:08:48;;;;;;;16.40;11.50;;;2.40;99.90;;;;;;4974989;28;20057;-64
2022/11/25 07:11:16;;;;;;;14.63;9.75;;;2.40;99.90;;;;;;4978402;28;20132;-66
2022/11/25 07:13:43;;;;;;;16.48;9.32;;;2.40;99.90;;;;;;4981199;28;20134;-65
2022/11/25 07:16:11;;;;;;;14.93;11.65;;;2.40;99.90;;;;;;4980180;28;20058;-67
2022/11/25 07:18:39;;;;;;;13.02;10.20;;;2.50;99.90;;;;;;4978047;28;20053;-67
2022/11/25 07:21:12;;;;;;;14.43;10.43;;;2.40;99.90;;;;;;4978893;28;20120;-65
2022/11/25 07:23:41;;;;;;;17.50;11.13;;;2.40;99.90;;;;;;4979317;28;20137;-66
2022/11/25 07:26:13;;;;;;;14.73;11.60;;;2.40;99.90;;;;;;4984078;28;20080;-65
2022/11/25 07:28:40;;;;;;;15.77;11.63;;;2.50;99.90;;;;;;4980002;28;20039;-66
2022/11/25 07:31:20;;;;;;;17.20;12.50;;;2.50;99.90;;;;;;4995575;28;20097;-66
2022/11/25 07:33:55;;;;;;;17.35;13.27;;;2.50;99.90;;;;;;4980763;28;20047;-66
2022/11/25 07:36:23;;;;;;;21.45;12.40;;;2.50;99.90;;;;;;4966392;28;20138;-65
2022/11/25 07:38:53;;;;;;;17.98;12.60;;;2.50;99.90;;;;;;4994720;28;20042;-66
2022/11/25 07:41:23;;;;;;;16.73;12.15;;;2.50;99.90;;;;;;4986684;28;20711;-66
2022/11/25 07:43:53;;;;;;;16.70;11.77;;;2.50;99.90;;;;;;4986212;28;20085;-65
2022/11/25 07:46:26;;;;;;;18.65;11.60;;;2.60;99.90;;;;;;4991347;28;20289;-66
2022/11/25 07:48:58;;;;;;;17.10;11.05;;;2.60;99.90;;;;;;4981946;28;20827;-65
2022/11/25 07:51:27;;;;;;;15.93;11.75;;;2.60;99.90;;;;;;4977783;28;20046;-66
2022/11/25 07:53:56;;;;;;;20.42;14.38;;;2.60;99.90;;;;;;4980430;28;20049;-67
2022/11/25 07:56:23;;;;;;;15.70;11.93;;;2.60;99.90;;;;;;4976486;28;20109;-66
2022/11/25 07:58:51;;;;;;;15.57;11.90;;;2.60;99.90;;;;;;4983666;28;20463;-66
2022/11/25 08:01:18;;;;;;;14.48;11.60;;;2.60;99.90;;;;;;4994687;28;20503;-67
2022/11/25 08:03:47;;;;;;;16.25;11.52;;;2.60;99.90;;;;;;4995191;28;20133;-66
2022/11/25 08:06:16;;;;;;;20.40;12.38;;;2.70;99.90;;;;;;4977810;28;20046;-68
2022/11/25 08:08:44;;;;;;;16.23;11.03;;;2.60;99.90;;;;;;4979726;28;20038;-65
2022/11/25 08:11:12;;;;;;;17.13;12.38;;;2.60;99.90;;;;;;4978393;28;20141;-66
2022/11/25 08:13:40;;;;;;;17.65;12.07;;;2.60;99.90;;;;;;4992756;28;20479;-66
2022/11/25 08:16:07;;;;;;;15.15;11.70;;;2.70;99.90;;;;;;4994174;28;20054;-67
2022/11/25 08:18:34;;;;;;;16.30;11.82;;;2.70;99.90;;;;;;4979130;28;20134;-65
2022/11/25 08:21:04;;;;;;;15.18;11.55;;;2.70;99.90;;;;;;4993110;28;20488;-66
2022/11/25 08:23:33;;;;;;;18.88;10.82;;;2.70;99.90;;;;;;4980057;28;20043;-67
2022/11/25 08:26:08;;;;;;;13.82;10.32;;;2.70;99.90;;;;;;4979698;28;20587;-67
2022/11/25 08:28:35;;;;;;;14.55;12.00;;;2.70;99.90;;;;;;4990678;28;20053;-68
2022/11/25 08:31:24;;;;;;;15.32;10.55;;;2.70;99.90;;;;;;4982740;28;20590;-67
2022/11/25 08:33:52;;;;;;;14.95;10.57;;;2.70;99.90;;;;;;4977342;28;20051;-69
2022/11/25 08:36:20;;;;;;;15.77;10.98;;;2.70;99.90;;;;;;4977470;28;20049;-67
2022/11/25 08:38:50;;;;;;;14.70;10.85;;;2.70;99.90;;;;;;4979813;28;20165;-68
2022/11/25 08:41:23;;;;;;;15.73;11.43;;;2.70;99.90;;;;;;4982823;28;20527;-68
2022/11/25 08:43:51;;;;;;;14.23;10.35;;;2.70;99.90;;;;;;4978674;28;20069;-66
2022/11/25 08:46:21;;;;;;;12.20;8.77;;;2.70;99.90;;;;;;4982240;28;20054;-66
2022/11/25 08:48:48;;;;;;;14.82;11.43;;;2.70;99.90;;;;;;4988415;28;20101;-68
2022/11/25 08:51:19;;;;;;;12.77;9.13;;;2.70;99.90;;;;;;4997968;28;20073;-66
2022/11/25 08:53:47;;;;;;;11.82;9.02;;;2.80;99.90;;;;;;4988777;28;20046;-67
2022/11/25 08:56:14;;;;;;;14.05;9.90;;;2.80;99.90;;;;;;4983437;28;20145;-66
2022/11/25 08:58:41;;;;;;;13.30;10.45;;;2.80;99.90;;;;;;4983751;28;20060;-67
2022/11/25 09:01:09;;;;;;;11.52;9.50;;;2.80;99.90;;;;;;4983549;28;20121;-66
2022/11/25 09:03:40;;;;;;;13.52;9.32;;;2.80;99.90;;;;;;4988254;28;20058;-66
2022/11/25 09:06:08;;;;;;;12.13;9.38;;;2.80;99.90;;;;;;4984341;28;20141;-68
2022/11/25 09:08:36;;;;;;;13.73;10.55;;;2.80;99.90;;;;;;4986623;28;20050;-66
2022/11/25 09:11:03;;;;;;;15.00;11.23;;;2.80;99.90;;;;;;4984765;28;20158;-65
2022/11/25 09:13:30;;;;;;;14.65;11.57;;;2.80;99.90;;;;;;4989684;28;20054;-67
2022/11/25 09:15:59;;;;;;;14.07;10.38;;;2.90;99.90;;;;;;4984145;28;20113;-69
2022/11/25 09:18:29;;;;;;;12.95;8.80;;;2.90;99.90;;;;;;4984297;28;20046;-66
2022/11/25 09:20:57;;;;;;;12.30;9.25;;;2.90;99.90;;;;;;4982882;28;20384;-66
2022/11/25 09:23:25;;;;;;;13.63;10.23;;;2.90;99.90;;;;;;4985953;28;20050;-66
2022/11/25 09:25:54;;;;;;;13.23;10.30;;;2.90;99.90;;;;;;4983001;28;20497;-68
2022/11/25 09:28:22;;;;;;;12.35;9.02;;;2.90;99.90;;;;;;4980460;28;20041;-67
2022/11/25 09:30:52;;;;;;;10.68;8.50;;;2.90;99.90;;;;;;4984179;28;20527;-67
2022/11/25 09:33:20;;;;;;;14.55;8.65;;;2.90;99.90;;;;;;4980118;28;20108;-66
2022/11/25 09:35:47;;;;;;;13.40;9.80;;;2.90;99.90;;;;;;4985099;28;20433;-68
2022/11/25 09:38:17;;;;;;;11.60;9.25;;;2.90;99.90;;;;;;4980777;28;20141;-66
2022/11/25 09:40:52;;;;;;;12.20;9.65;;;2.90;99.90;;;;;;4985098;28;20157;-65
2022/11/25 09:46:45;;;;;;;13.10;9.25;;;3.00;99.90;;;;;;4982568;28;20138;-69
2022/11/25 09:49:34;;;;;;;12.45;9.55;;;3.00;99.90;;;;;;4986119;28;20137;-67
2022/11/25 09:52:26;;;;;;;17.50;10.25;;;2.90;99.90;;;;;;4984946;28;20050;-67
2022/11/25 09:55:01;;;;;;;13.98;9.85;;;3.00;99.90;;;;;;4978532;28;20058;-70
2022/11/25 09:57:40;;;;;;;16.60;9.43;;;3.00;99.90;;;;;;4995070;28;20062;-69
2022/11/25 10:00:15;;;;;;;12.55;10.27;;;3.00;99.90;;;;;;4981325;28;20057;-66
2022/11/25 10:03:01;;;;;;;11.18;7.28;;;3.00;99.90;;;;;;4969724;28;20137;-66
2022/11/25 10:05:35;;;;;;;15.20;9.65;;;3.00;99.90;;;;;;4983408;28;20035;-66
2022/11/25 10:08:11;;;;;;;11.80;8.13;;;3.00;99.90;;;;;;4981601;28;20437;-66
2022/11/25 10:10:44;;;;;;;13.43;8.70;;;3.00;99.90;;;;;;4993913;28;20168;-67
2022/11/25 10:13:22;;;;;;;14.13;8.30;;;3.00;99.90;;;;;;4984522;28;20055;-68
2022/11/25 10:15:51;;;;;;;10.30;7.90;;;3.10;99.90;;;;;;4978591;28;20050;-69
2022/11/25 10:18:26;;;;;;;9.52;7.93;;;3.00;99.90;;;;;;4986474;28;20380;-67
2022/11/25 10:20:53;;;;;;;9.30;7.65;;;3.10;99.90;;;;;;4982487;28;20066;-65
2022/11/25 10:23:32;;;;;;;9.35;7.72;;;3.10;99.90;;;;;;4981330;28;20544;-68
2022/11/25 10:26:27;;;;;;;11.35;9.38;;;3.10;99.90;;;;;;4983740;28;20089;-65
2022/11/25 10:29:03;;;;;;;12.05;8.20;;;3.10;99.90;;;;;;4980664;28;20145;-66
2022/11/25 10:31:36;;;;;;;12.13;8.18;;;3.10;99.90;;;;;;4982539;28;20064;-66
2022/11/25 10:34:22;;;;;;;9.73;7.18;;;3.10;99.90;;;;;;4987453;28;20065;-65
2022/11/25 10:36:51;;;;;;;12.55;9.63;;;3.10;99.90;;;;;;4992389;28;20050;-68
2022/11/25 10:39:26;;;;;;;13.80;9.18;;;3.10;99.90;;;;;;4985179;28;20051;-64
2022/11/25 10:42:26;;;;;;;10.65;9.13;;;3.10;99.90;;;;;;4980154;28;20397;-71
2022/11/25 10:44:54;;;;;;;14.27;10.30;;;3.10;99.90;;;;;;4934664;28;20609;-67
2022/11/25 10:47:59;;;;;;;11.25;8.05;;;3.20;99.90;;;;;;4982046;28;20137;-70
2022/11/25 10:50:26;;;;;;;9.68;7.82;;;3.20;99.90;;;;;;4982605;28;20133;-71
2022/11/25 10:53:03;;;;;;;9.38;6.97;;;3.20;99.90;;;;;;4996526;28;20138;-65
2022/11/25 10:55:32;;;;;;;11.68;8.23;;;3.20;99.90;;;;;;4986825;28;20081;-67
2022/11/25 10:58:25;;;;;;;11.32;7.80;;;3.20;99.90;;;;;;4983521;28;20089;-66
2022/11/25 11:01:13;;;;;;;11.75;8.25;;;3.20;99.90;;;;;;4984123;28;20137;-66
2022/11/25 11:04:09;;;;;;;11.13;8.57;;;3.20;99.90;;;;;;4981367;28;20060;-66
2022/11/25 11:06:39;;;;;;;9.55;8.07;;;3.30;99.90;;;;;;4982725;28;20336;-66
2022/11/25 11:09:31;;;;;;;8.05;6.97;;;3.30;99.90;;;;;;4982510;28;20061;-65
2022/11/25 11:12:29;;;;;;;12.23;7.97;;;3.30;99.90;;;;;;4998342;28;20054;-65
2022/11/25 11:15:20;;;;;;;8.95;6.47;;;3.30;99.90;;;;;;4974847;28;20064;-66
2022/11/25 11:17:47;;;;;;;9.00;6.72;;;3.30;99.90;;;;;;4996896;28;20042;-66
2022/11/25 11:20:28;;;;;;;10.48;7.55;;;3.30;99.90;;;;;;4979127;28;20109;-65
2022/11/25 11:23:13;;;;;;;14.02;7.93;;;3.30;99.90;;;;;;4980438;28;20137;-65
2022/11/25 11:25:43;;;;;;;10.63;7.65;;;3.30;99.90;;;;;;4979985;28;20049;-67
2022/11/25 11:28:35;;;;;;;8.68;6.55;;;3.30;99.90;;;;;;4984158;28;20046;-66
2022/11/25 11:31:09;;;;;;;10.40;8.27;;;3.30;99.90;;;;;;4979473;28;20058;-68
2022/11/25 11:33:50;;;;;;;10.05;7.22;;;3.40;99.90;;;;;;4985987;28;20080;-70
2022/11/25 11:36:23;;;;;;;10.30;7.72;;;3.40;99.90;;;;;;4993674;28;20138;-69
2022/11/25 11:38:55;;;;;;;12.38;6.53;;;3.30;99.90;;;;;;4988628;28;20050;-70
2022/11/25 11:41:47;;;;;;;6.95;6.25;;;3.40;99.90;;;;;;4991286;28;20136;-66
2022/11/25 11:44:44;;;;;;;7.85;6.45;;;3.40;99.90;;;;;;4983668;28;20049;-67
2022/11/25 11:47:43;;;;;;;10.65;7.35;;;3.40;99.90;;;;;;4980870;28;20097;-67
2022/11/25 11:50:37;;;;;;;9.50;6.82;;;3.40;99.90;;;;;;4984405;28;20530;-72
2022/11/25 11:53:13;;;;;;;9.52;6.78;;;3.40;99.90;;;;;;4981142;28;20057;-66
2022/11/25 11:55:57;;;;;;;8.13;6.47;;;3.40;99.90;;;;;;4984431;28;20058;-68
2022/11/25 11:59:04;;;;;;;7.20;6.40;;;3.40;99.90;;;;;;4976773;28;20479;-66
2022/11/25 12:01:52;;;;;;;8.35;7.28;;;3.40;99.90;;;;;;4976029;28;20412;-70
2022/11/25 12:04:21;;;;;;;8.82;6.38;;;3.40;99.90;;;;;;4974460;28;20039;-66
2022/11/25 12:07:30;;;;;;;8.80;6.10;;;3.40;99.90;;;;;;4980025;28;20054;-66
2022/11/25 12:10:06;;;;;;;6.80;5.78;;;3.40;99.90;;;;;;4980901;28;20041;-67
2022/11/25 12:12:52;;;;;;;7.63;5.10;;;3.40;99.90;;;;;;4940222;28;20414;-68
2022/11/25 12:15:34;;;;;;;9.32;6.30;;;3.40;99.90;;;;;;4976462;28;20484;-66
2022/11/25 12:18:11;;;;;;;8.95;6.40;;;3.50;99.90;;;;;;4984733;28;20061;-66
2022/11/25 12:20:49;;;;;;;13.10;6.38;;;3.50;99.90;;;;;;4972681;28;20559;-67
2022/11/25 12:23:40;;;;;;;8.02;6.40;;;3.50;99.90;;;;;;4981107;28;20476;-69
2022/11/25 12:26:13;;;;;;;6.40;5.80;;;3.50;99.90;;;;;;4980295;28;20433;-69
2022/11/25 12:28:51;;;;;;;8.85;6.45;;;3.50;99.90;;;;;;4981349;28;20069;-68
2022/11/25 12:31:36;;;;;;;7.72;6.28;;;3.60;99.90;;;;;;4981409;28;20073;-70
2022/11/25 12:34:26;;;;;;;6.63;5.50;;;3.50;99.90;;;;;;4982067;28;20073;-66
2022/11/25 12:37:09;;;;;;;9.27;5.28;;;3.50;99.90;;;;;;4976794;28;20053;-68
2022/11/25 12:40:14;;;;;;;6.93;5.07;;;3.50;99.90;;;;;;4980626;28;20077;-67
2022/11/25 12:42:42;;;;;;;9.38;5.28;;;3.50;99.90;;;;;;4978478;28;20576;-66
2022/11/25 12:45:24;;;;;;;7.03;5.47;;;3.50;99.90;;;;;;4978155;28;20050;-66
2022/11/25 12:47:52;;;;;;;6.50;5.25;;;3.50;99.90;;;;;;4977753;28;20144;-68
2022/11/25 12:50:41;;;;;;;8.25;5.15;;;3.50;99.90;;;;;;4977545;28;20496;-67
2022/11/25 12:53:42;;;;;;;6.45;4.78;;;3.50;99.90;;;;;;4980415;28;20516;-67
2022/11/25 12:56:55;;;;;;;6.30;4.63;;;3.50;99.90;;;;;;4979606;28;20052;-67
2022/11/25 12:59:34;;;;;;;6.90;5.82;;;3.50;99.90;;;;;;4981082;28;20081;-64
2022/11/25 13:02:13;;;;;;;6.60;4.78;;;3.50;99.90;;;;;;4982832;28;20165;-65
2022/11/25 13:05:10;;;;;;;6.22;5.20;;;3.50;99.90;;;;;;4973618;28;20393;-65
2022/11/25 13:08:27;;;;;;;6.63;4.95;;;3.50;99.90;;;;;;4964657;28;20185;-65
2022/11/25 13:11:15;;;;;;;7.00;5.85;;;3.50;99.90;;;;;;4996381;28;20136;-64
2022/11/25 13:13:48;;;;;;;7.65;6.70;;;3.40;99.90;;;;;;4996648;28;20112;-64
2022/11/25 13:16:18;;;;;;;9.60;5.22;;;3.40;99.90;;;;;;4979850;28;20569;-67
2022/11/25 13:18:45;;;;;;;6.40;5.33;;;3.40;99.90;;;;;;4980524;28;20464;-69
2022/11/25 13:21:14;;;;;;;11.27;8.02;;;3.40;99.90;;;;;;4978549;28;20137;-66
2022/11/25 13:23:46;;;;;;;7.43;6.10;;;3.40;99.90;;;;;;4985507;28;20373;-64
2022/11/25 13:26:47;;;;;;;7.30;5.30;;;3.40;99.90;;;;;;4980921;28;20055;-68
2022/11/25 13:29:14;;;;;;;7.40;6.07;;;3.40;99.90;;;;;;4984630;28;20058;-68